< < Back
Terminal Aerodrome Forecast


Current Version              Previous Versions:   1  2  3  4  5  6  7  8  9  

Terminal Aerodrome Forecast

998
FTUS44 KHUN 010520
TAFHSV
TAF
KHSV 010520Z 0106/0206 00000KT P6SM SCT070
      TEMPO 0110/0114 5SM BR
     FM011600 20005KT P6SM SCT050
     FM020000 VRB03KT P6SM SCT120=

Latest METAR

135
SAUS80 KWBC 012000 RRD
MTRHSV
METAR KHSV 011953Z VRB03KT 10SM SCT065 31/13 A2994 RMK AO2 SLP133
T03060128


USA.gov is the U.S. government's official web portal to all federal, state and local government web resources and services.